createdAt,value
2019-03-24T00:02:27.686Z,53.20
2019-03-24T00:04:58.842Z,53.10
2019-03-24T00:07:30.295Z,53.20
2019-03-24T00:10:01.500Z,53.30
2019-03-24T00:12:33.700Z,53.40
2019-03-24T00:15:05.518Z,53.50
2019-03-24T00:17:36.812Z,53.60
2019-03-24T00:20:10.251Z,53.60
2019-03-24T00:22:41.671Z,54.00
2019-03-24T00:25:12.720Z,53.80
2019-03-24T00:27:43.940Z,54.10
2019-03-24T00:30:15.567Z,54.00
2019-03-24T00:32:46.837Z,54.00
2019-03-24T00:35:17.955Z,54.10
2019-03-24T00:37:49.152Z,54.20
2019-03-24T00:40:20.311Z,54.40
2019-03-24T00:42:51.516Z,54.60
2019-03-24T00:45:22.786Z,54.60
2019-03-24T00:47:54.033Z,54.50
2019-03-24T00:50:25.198Z,54.70
2019-03-24T00:52:56.413Z,54.70
2019-03-24T00:55:27.630Z,54.70
2019-03-24T00:57:58.851Z,54.80
2019-03-24T01:00:44.072Z,55.10
2019-03-24T01:03:16.352Z,55.20
2019-03-24T01:05:47.844Z,55.10
2019-03-24T01:08:18.995Z,55.40
2019-03-24T01:10:50.179Z,55.30
2019-03-24T01:13:21.850Z,55.40
2019-03-24T01:15:53.351Z,55.50
2019-03-24T01:18:24.480Z,55.70
2019-03-24T01:20:55.667Z,56.10
2019-03-24T01:23:26.839Z,56.10
2019-03-24T01:25:58.949Z,56.30
2019-03-24T01:28:30.253Z,56.40
2019-03-24T01:31:01.476Z,55.70
2019-03-24T01:33:33.057Z,56.70
2019-03-24T01:36:06.095Z,56.60
2019-03-24T01:38:37.355Z,56.70
2019-03-24T01:41:08.525Z,56.90
2019-03-24T01:43:39.703Z,57.30
2019-03-24T01:46:11.314Z,57.10
2019-03-24T01:48:42.427Z,57.30
2019-03-24T01:51:14.008Z,57.20
2019-03-24T01:53:45.209Z,57.50
2019-03-24T01:56:16.295Z,57.60
2019-03-24T01:58:47.447Z,57.60
2019-03-24T02:01:18.728Z,57.60
2019-03-24T02:03:49.938Z,57.60
2019-03-24T02:06:21.055Z,57.60
2019-03-24T02:08:52.682Z,57.90
2019-03-24T02:11:24.207Z,58.10
2019-03-24T02:13:55.323Z,58.00
2019-03-24T02:16:45.307Z,58.00
2019-03-24T02:19:16.509Z,58.20
2019-03-24T02:21:47.621Z,58.20
2019-03-24T02:24:18.876Z,59.00
2019-03-24T02:26:50.075Z,58.40
2019-03-24T02:29:21.180Z,58.40
2019-03-24T02:31:52.308Z,58.50
2019-03-24T02:34:23.497Z,58.50
2019-03-24T02:36:54.757Z,58.70
2019-03-24T02:39:26.047Z,58.90
2019-03-24T02:41:57.389Z,58.90
2019-03-24T02:44:28.969Z,58.90
2019-03-24T02:47:00.294Z,59.00
2019-03-24T02:49:31.589Z,59.10
2019-03-24T02:52:02.817Z,59.20
2019-03-24T02:54:34.095Z,59.20
2019-03-24T02:57:05.364Z,59.30
2019-03-24T02:59:36.544Z,59.40
2019-03-24T03:02:07.811Z,59.40
2019-03-24T03:04:40.055Z,59.50
2019-03-24T03:07:11.220Z,59.60
2019-03-24T03:09:42.370Z,59.70
2019-03-24T03:12:13.676Z,59.90
2019-03-24T03:14:44.777Z,59.90
2019-03-24T03:17:16.166Z,60.10
2019-03-24T03:19:47.383Z,60.30
2019-03-24T03:22:18.640Z,60.50
2019-03-24T03:24:49.761Z,60.40
2019-03-24T03:27:21.044Z,60.40
2019-03-24T03:29:52.339Z,60.40
2019-03-24T03:32:23.660Z,60.40
2019-03-24T03:34:56.009Z,60.50
2019-03-24T03:37:27.172Z,60.70
2019-03-24T03:39:58.664Z,61.50
2019-03-24T03:42:30.180Z,61.00
2019-03-24T03:45:01.441Z,61.10
2019-03-24T03:47:32.672Z,61.20
2019-03-24T03:50:05.332Z,61.20
2019-03-24T03:52:36.527Z,61.40
2019-03-24T03:55:08.280Z,61.50
2019-03-24T03:57:39.430Z,61.50
2019-03-24T04:00:11.587Z,61.90
2019-03-24T04:02:42.865Z,62.00
2019-03-24T04:05:14.083Z,62.00
2019-03-24T04:07:45.350Z,62.30
2019-03-24T04:10:16.626Z,62.20
2019-03-24T04:12:47.807Z,62.60
2019-03-24T04:15:18.985Z,62.90
2019-03-24T04:17:50.168Z,63.20
2019-03-24T04:20:21.506Z,62.90
2019-03-24T04:22:52.726Z,63.00
2019-03-24T04:25:23.901Z,63.50
2019-03-24T04:27:55.181Z,63.40
2019-03-24T04:30:26.769Z,63.40
2019-03-24T04:32:57.974Z,63.40
2019-03-24T04:35:29.055Z,63.30
2019-03-24T04:38:00.298Z,63.30
2019-03-24T04:40:31.409Z,63.50
2019-03-24T04:43:02.644Z,63.90
2019-03-24T04:45:33.824Z,64.00
2019-03-24T04:48:05.141Z,63.80
2019-03-24T04:50:36.403Z,63.70
2019-03-24T04:53:07.637Z,63.70
2019-03-24T04:55:38.771Z,63.70
2019-03-24T04:58:10.443Z,63.70
2019-03-24T05:00:42.003Z,63.70
2019-03-24T05:03:13.224Z,63.90
2019-03-24T05:05:44.765Z,63.90
2019-03-24T05:08:16.025Z,64.10
2019-03-24T05:10:48.517Z,64.10
2019-03-24T05:13:19.687Z,64.00
2019-03-24T05:15:50.984Z,64.10
2019-03-24T05:18:22.363Z,64.10
2019-03-24T05:20:53.621Z,64.10
2019-03-24T05:23:24.872Z,64.30
2019-03-24T05:25:56.151Z,64.40
2019-03-24T05:28:28.575Z,64.30
2019-03-24T05:30:59.632Z,64.30
2019-03-24T05:33:30.756Z,64.30
2019-03-24T05:36:01.973Z,64.00
2019-03-24T05:38:33.265Z,64.00
2019-03-24T05:41:04.536Z,64.20
2019-03-24T05:43:36.789Z,64.10
2019-03-24T05:46:08.009Z,63.90
2019-03-24T05:48:39.174Z,63.60
2019-03-24T05:51:10.349Z,63.30
2019-03-24T05:53:41.574Z,62.80
2019-03-24T05:56:12.850Z,62.20
2019-03-24T05:58:44.046Z,62.40
2019-03-24T06:01:15.332Z,62.60
2019-03-24T06:03:47.299Z,62.80
2019-03-24T06:06:18.529Z,63.00
2019-03-24T06:08:49.737Z,63.10
2019-03-24T06:11:20.936Z,63.10
2019-03-24T06:13:52.187Z,62.80
2019-03-24T06:16:23.429Z,61.30
2019-03-24T06:18:54.597Z,59.60
2019-03-24T06:21:25.833Z,58.70
2019-03-24T06:23:57.359Z,57.90
2019-03-24T06:26:28.453Z,57.10
2019-03-24T06:28:59.622Z,56.50
2019-03-24T06:31:30.658Z,55.70
2019-03-24T06:34:01.956Z,54.70
2019-03-24T06:36:33.162Z,54.20
2019-03-24T06:39:05.404Z,53.40
2019-03-24T06:41:36.714Z,52.70
2019-03-24T06:44:07.990Z,52.30
2019-03-24T06:46:39.507Z,52.40
2019-03-24T06:49:10.749Z,51.70
2019-03-24T06:51:41.979Z,50.90
2019-03-24T06:54:13.216Z,50.50
2019-03-24T06:56:44.470Z,50.60
2019-03-24T06:59:15.589Z,49.90
2019-03-24T07:01:46.873Z,49.20
2019-03-24T07:04:18.017Z,48.00
2019-03-24T07:06:49.992Z,47.50
2019-03-24T07:09:21.159Z,47.30
2019-03-24T07:12:00.165Z,45.70
2019-03-24T07:14:31.897Z,44.70
2019-03-24T07:17:03.045Z,44.20
2019-03-24T07:19:34.303Z,43.70
2019-03-24T07:22:07.281Z,42.40
2019-03-24T07:24:38.356Z,41.70
2019-03-24T07:27:09.595Z,41.60
2019-03-24T07:29:41.280Z,41.20
2019-03-24T07:32:12.603Z,40.60
2019-03-24T07:34:43.938Z,40.50
2019-03-24T07:37:15.172Z,39.50
2019-03-24T07:39:46.490Z,39.80
2019-03-24T07:42:17.736Z,38.70
2019-03-24T07:44:48.827Z,38.30
2019-03-24T07:47:20.072Z,38.30
2019-03-24T07:49:55.006Z,38.10
2019-03-24T07:52:27.071Z,37.80
2019-03-24T07:54:58.246Z,37.80
2019-03-24T07:57:29.455Z,37.40
2019-03-24T08:00:00.557Z,36.40
2019-03-24T08:02:31.689Z,35.80
2019-03-24T08:05:03.189Z,34.80
2019-03-24T08:07:34.335Z,34.60
2019-03-24T08:10:07.525Z,32.90
2019-03-24T08:12:38.724Z,32.60
2019-03-24T08:15:10.133Z,33.40
2019-03-24T08:17:41.309Z,33.00
2019-03-24T08:20:12.504Z,33.10
2019-03-24T08:22:43.736Z,33.10
2019-03-24T08:25:14.917Z,33.20
2019-03-24T08:27:46.217Z,33.00
2019-03-24T08:30:25.715Z,32.10
2019-03-24T08:32:56.940Z,31.70
2019-03-24T08:35:28.191Z,31.30
2019-03-24T08:37:59.448Z,31.20
2019-03-24T08:40:30.589Z,30.80
2019-03-24T08:43:01.844Z,30.70
2019-03-24T08:45:33.257Z,30.40
2019-03-24T08:48:04.536Z,29.90
2019-03-24T08:50:35.787Z,29.30
2019-03-24T08:53:06.997Z,29.30
2019-03-24T08:55:38.495Z,28.30
2019-03-24T08:58:09.667Z,28.20
2019-03-24T09:00:41.248Z,27.50
2019-03-24T09:03:13.956Z,26.90
2019-03-24T09:05:45.185Z,27.00
2019-03-24T09:08:16.335Z,27.10
2019-03-24T09:10:47.624Z,27.00
2019-03-24T09:13:18.819Z,27.00
2019-03-24T09:15:50.178Z,26.90
2019-03-24T09:18:21.362Z,26.70
2019-03-24T09:20:52.516Z,26.70
2019-03-24T09:23:23.719Z,26.50
2019-03-24T09:25:54.933Z,26.10
2019-03-24T09:28:26.226Z,25.80
2019-03-24T09:30:57.436Z,25.60
2019-03-24T09:33:28.696Z,25.60
2019-03-24T09:35:59.867Z,25.40
2019-03-24T09:38:31.018Z,25.00
2019-03-24T09:41:02.137Z,24.90
2019-03-24T09:43:33.261Z,24.80
2019-03-24T09:46:04.858Z,24.40
2019-03-24T09:48:36.106Z,24.10
2019-03-24T09:51:07.309Z,23.90
2019-03-24T09:53:38.557Z,24.00
2019-03-24T09:56:09.631Z,24.30
2019-03-24T09:58:41.252Z,24.50
2019-03-24T10:01:12.524Z,24.50
2019-03-24T10:03:45.936Z,24.30
2019-03-24T10:06:17.409Z,24.30
2019-03-24T10:08:48.703Z,24.10
2019-03-24T10:11:19.915Z,24.10
2019-03-24T10:13:51.354Z,23.90
2019-03-24T10:16:22.694Z,23.80
2019-03-24T10:18:53.923Z,24.00
2019-03-24T10:21:27.196Z,24.00
2019-03-24T10:23:58.304Z,23.90
2019-03-24T10:26:29.597Z,23.80
2019-03-24T10:29:03.114Z,23.70
2019-03-24T10:31:34.428Z,23.80
2019-03-24T10:34:05.695Z,23.90
2019-03-24T10:36:36.892Z,24.00
2019-03-24T10:39:08.222Z,24.30
2019-03-24T10:41:39.424Z,24.70
2019-03-24T10:44:10.668Z,25.00
2019-03-24T10:46:42.927Z,25.30
2019-03-24T10:49:24.367Z,25.80
2019-03-24T10:51:47.354Z,26.60
2019-03-24T10:54:19.645Z,27.10
2019-03-24T10:56:50.909Z,27.60
2019-03-24T10:59:22.123Z,28.00
2019-03-24T11:01:53.302Z,28.30
2019-03-24T11:04:24.511Z,28.80
2019-03-24T11:06:55.682Z,28.90
2019-03-24T11:09:26.923Z,28.90
2019-03-24T11:11:58.013Z,28.40
2019-03-24T11:14:29.106Z,28.80
2019-03-24T11:17:00.238Z,29.30
2019-03-24T11:19:35.740Z,29.60
2019-03-24T11:22:04.264Z,29.70
2019-03-24T11:24:36.781Z,29.60
2019-03-24T11:27:08.043Z,29.80
2019-03-24T11:29:39.143Z,30.10
2019-03-24T11:32:10.281Z,30.50
2019-03-24T11:34:41.379Z,31.10
2019-03-24T11:37:12.629Z,31.30
2019-03-24T11:39:43.815Z,31.30
2019-03-24T11:42:15.026Z,31.40
2019-03-24T11:44:46.333Z,31.50
2019-03-24T11:47:26.174Z,31.50
2019-03-24T11:49:50.456Z,31.80
2019-03-24T11:52:21.580Z,32.00
2019-03-24T11:54:52.854Z,32.00
2019-03-24T11:57:24.119Z,32.10
2019-03-24T11:59:55.420Z,32.10
2019-03-24T12:02:26.974Z,32.30
2019-03-24T12:04:58.175Z,32.30
2019-03-24T12:07:29.418Z,32.30
2019-03-24T12:10:00.627Z,32.60
2019-03-24T12:12:31.874Z,32.80
2019-03-24T12:15:05.345Z,32.90
2019-03-24T12:17:36.900Z,33.00
2019-03-24T12:20:08.542Z,33.10
2019-03-24T12:22:39.870Z,33.40
2019-03-24T12:25:11.067Z,33.70
2019-03-24T12:27:42.359Z,33.90
2019-03-24T12:30:13.673Z,33.90
2019-03-24T12:32:44.895Z,34.20
2019-03-24T12:35:16.102Z,34.90
2019-03-24T12:37:47.837Z,35.00
2019-03-24T12:40:18.956Z,35.10
2019-03-24T12:42:50.045Z,35.10
2019-03-24T12:45:21.171Z,35.30
2019-03-24T12:47:52.293Z,35.40
2019-03-24T12:50:31.506Z,35.40
2019-03-24T12:52:56.250Z,35.60
2019-03-24T12:55:27.421Z,35.70
2019-03-24T12:57:58.770Z,36.00
2019-03-24T13:00:35.474Z,36.30
2019-03-24T13:03:06.939Z,36.40
2019-03-24T13:05:38.026Z,36.40
2019-03-24T13:08:19.334Z,36.50
2019-03-24T13:10:50.789Z,36.40
2019-03-24T13:13:21.976Z,36.70
2019-03-24T13:15:53.236Z,37.00
2019-03-24T13:18:24.427Z,37.20
2019-03-24T13:20:55.761Z,37.30
2019-03-24T13:23:45.807Z,37.30
2019-03-24T13:26:17.080Z,37.50
2019-03-24T13:28:48.852Z,37.60
2019-03-24T13:31:20.362Z,38.20
2019-03-24T13:33:51.648Z,37.70
2019-03-24T13:36:24.247Z,37.90
2019-03-24T13:38:55.430Z,38.10
2019-03-24T13:41:26.538Z,38.30
2019-03-24T13:43:57.783Z,38.40
2019-03-24T13:46:29.059Z,38.50
2019-03-24T13:49:00.289Z,38.30
2019-03-24T13:51:31.569Z,38.30
2019-03-24T13:54:03.159Z,38.30
2019-03-24T13:56:34.443Z,38.20
2019-03-24T13:59:05.543Z,38.40
2019-03-24T14:01:37.139Z,38.40
2019-03-24T14:04:08.425Z,38.30
2019-03-24T14:06:39.569Z,38.50
2019-03-24T14:09:11.937Z,38.50
2019-03-24T14:11:43.208Z,38.80
2019-03-24T14:14:14.431Z,38.90
2019-03-24T14:16:46.714Z,38.90
2019-03-24T14:19:18.126Z,38.90
2019-03-24T14:21:49.899Z,39.00
2019-03-24T14:24:21.006Z,39.10
2019-03-24T14:26:52.147Z,39.20
2019-03-24T14:29:23.339Z,39.40
2019-03-24T14:31:54.437Z,39.70
2019-03-24T14:34:25.759Z,39.40
2019-03-24T14:36:57.094Z,39.50
2019-03-24T14:39:28.557Z,39.70
2019-03-24T14:41:59.804Z,39.90
2019-03-24T14:44:31.001Z,40.10
2019-03-24T14:47:02.352Z,40.40
2019-03-24T14:49:33.942Z,40.60
2019-03-24T14:52:05.945Z,41.00
2019-03-24T14:54:38.776Z,41.20
2019-03-24T14:57:10.033Z,41.40
2019-03-24T14:59:41.828Z,41.40
2019-03-24T15:02:13.039Z,41.30
2019-03-24T15:04:44.364Z,41.40
2019-03-24T15:07:15.946Z,41.30
2019-03-24T15:09:47.427Z,41.40
2019-03-24T15:12:18.991Z,41.70
2019-03-24T15:14:50.392Z,41.60
2019-03-24T15:17:21.908Z,41.70
2019-03-24T15:19:53.198Z,41.90
2019-03-24T15:22:24.349Z,42.00
2019-03-24T15:24:55.567Z,42.30
2019-03-24T15:27:27.940Z,42.60
2019-03-24T15:29:59.479Z,43.00
2019-03-24T15:32:31.006Z,43.30
2019-03-24T15:35:03.004Z,43.50
2019-03-24T15:37:37.921Z,43.50
2019-03-24T15:40:09.923Z,43.60
2019-03-24T15:42:41.747Z,43.90
2019-03-24T15:45:13.436Z,44.20
2019-03-24T15:47:46.128Z,44.20
2019-03-24T15:50:17.264Z,44.20
2019-03-24T15:52:48.570Z,44.20
2019-03-24T15:55:20.964Z,44.10
2019-03-24T15:57:52.238Z,44.30
2019-03-24T16:00:45.164Z,44.30
2019-03-24T16:03:18.012Z,44.40
2019-03-24T16:05:49.847Z,44.50
2019-03-24T16:08:21.059Z,44.70
2019-03-24T16:10:55.505Z,45.70
2019-03-24T16:13:27.068Z,45.10
2019-03-24T16:15:58.339Z,45.20
2019-03-24T16:18:29.555Z,45.40
2019-03-24T16:21:01.128Z,45.50
2019-03-24T16:23:32.653Z,45.70
2019-03-24T16:26:03.921Z,45.70
2019-03-24T16:28:35.255Z,45.40
2019-03-24T16:31:06.499Z,46.00
2019-03-24T16:33:38.627Z,46.40
2019-03-24T16:36:09.843Z,46.80
2019-03-24T16:38:48.902Z,46.80
2019-03-24T16:41:13.855Z,47.10
2019-03-24T16:43:45.156Z,47.30
2019-03-24T16:46:16.245Z,47.50
2019-03-24T16:48:47.660Z,47.70
2019-03-24T16:51:18.950Z,47.90
2019-03-24T16:53:50.237Z,48.10
2019-03-24T16:56:21.388Z,48.30
2019-03-24T16:58:52.783Z,48.40
2019-03-24T17:01:24.087Z,48.70
2019-03-24T17:03:55.349Z,48.80
2019-03-24T17:06:27.105Z,48.90
2019-03-24T17:08:58.227Z,49.00
2019-03-24T17:11:29.512Z,49.00
2019-03-24T17:14:00.707Z,49.00
2019-03-24T17:16:32.115Z,49.20
2019-03-24T17:19:03.338Z,49.20
2019-03-24T17:21:34.692Z,49.30
2019-03-24T17:24:07.675Z,49.40
2019-03-24T17:26:38.963Z,49.50
2019-03-24T17:29:10.232Z,49.50
2019-03-24T17:31:41.603Z,49.60
2019-03-24T17:34:12.900Z,49.70
2019-03-24T17:36:44.726Z,50.10
2019-03-24T17:39:16.432Z,50.00
2019-03-24T17:41:47.697Z,50.30
2019-03-24T17:44:19.297Z,50.40
2019-03-24T17:46:50.800Z,50.60
2019-03-24T17:49:22.294Z,51.00
2019-03-24T17:52:00.735Z,51.00
2019-03-24T17:54:26.736Z,51.10
2019-03-24T17:56:58.037Z,51.40
2019-03-24T17:59:29.468Z,51.40
2019-03-24T18:02:01.368Z,51.60
2019-03-24T18:04:32.574Z,51.70
2019-03-24T18:07:03.870Z,51.80
2019-03-24T18:09:35.235Z,51.90
2019-03-24T18:12:06.374Z,51.90
2019-03-24T18:14:37.766Z,51.90
2019-03-24T18:17:09.219Z,52.10
2019-03-24T18:19:40.462Z,52.00
2019-03-24T18:22:12.136Z,52.50
2019-03-24T18:24:43.476Z,51.80
2019-03-24T18:27:17.964Z,52.50
2019-03-24T18:29:49.229Z,51.80
2019-03-24T18:32:22.970Z,51.80
2019-03-24T18:34:53.439Z,51.80
2019-03-24T18:37:24.671Z,51.80
2019-03-24T18:39:55.964Z,51.80
2019-03-24T18:42:28.846Z,51.90
2019-03-24T18:45:01.155Z,51.90
2019-03-24T18:47:33.687Z,51.90
2019-03-24T18:50:05.515Z,52.00
2019-03-24T18:52:36.728Z,51.90
2019-03-24T18:55:08.866Z,51.90
2019-03-24T18:57:40.041Z,52.40
2019-03-24T19:00:13.707Z,51.80
2019-03-24T19:02:45.244Z,51.90
2019-03-24T19:05:16.974Z,51.90
2019-03-24T19:07:48.218Z,52.00
2019-03-24T19:10:19.799Z,52.10
2019-03-24T19:12:51.125Z,52.20
2019-03-24T19:15:22.675Z,52.30
2019-03-24T19:17:54.177Z,52.30
2019-03-24T19:20:26.271Z,53.00
2019-03-24T19:22:57.852Z,52.40
2019-03-24T19:25:39.333Z,52.40
2019-03-24T19:28:30.061Z,52.50
2019-03-24T19:31:01.566Z,52.70
2019-03-24T19:33:33.037Z,53.00
2019-03-24T19:36:04.281Z,53.10
2019-03-24T19:38:35.734Z,53.10
2019-03-24T19:41:08.599Z,53.20
2019-03-24T19:43:39.950Z,53.10
2019-03-24T19:46:11.738Z,53.20
2019-03-24T19:48:43.127Z,53.20
2019-03-24T19:51:14.405Z,53.30
2019-03-24T19:53:45.740Z,53.30
2019-03-24T19:56:17.191Z,53.30
2019-03-24T19:58:48.515Z,53.40
2019-03-24T20:01:19.771Z,53.40
2019-03-24T20:03:50.923Z,53.40
2019-03-24T20:06:22.332Z,53.50
2019-03-24T20:08:53.613Z,53.10
2019-03-24T20:11:24.932Z,53.50
2019-03-24T20:13:56.357Z,53.60
2019-03-24T20:16:27.591Z,53.70
2019-03-24T20:18:58.936Z,53.70
2019-03-24T20:21:30.377Z,53.80
2019-03-24T20:24:01.802Z,53.90
2019-03-24T20:26:33.225Z,53.90
2019-03-24T20:29:04.508Z,53.90
2019-03-24T20:31:35.858Z,54.00
2019-03-24T20:34:07.088Z,54.00
2019-03-24T20:36:38.369Z,54.20
2019-03-24T20:39:10.560Z,54.20
2019-03-24T20:41:41.858Z,54.20
2019-03-24T20:44:13.246Z,54.30
2019-03-24T20:46:44.490Z,54.50
2019-03-24T20:49:15.991Z,54.60
2019-03-24T20:51:47.315Z,54.70
2019-03-24T20:54:18.687Z,54.70
2019-03-24T20:56:51.213Z,54.80
2019-03-24T20:59:22.519Z,54.90
2019-03-24T21:01:53.787Z,55.00
2019-03-24T21:04:24.978Z,55.20
2019-03-24T21:06:56.627Z,55.40
2019-03-24T21:09:27.913Z,55.60
2019-03-24T21:11:59.251Z,55.70
2019-03-24T21:14:30.347Z,55.80
2019-03-24T21:17:01.640Z,55.80
2019-03-24T21:19:32.970Z,55.80
2019-03-24T21:22:05.183Z,55.90
2019-03-24T21:24:36.845Z,56.00
2019-03-24T21:27:07.928Z,56.20
2019-03-24T21:29:39.215Z,56.40
2019-03-24T21:32:10.460Z,56.50
2019-03-24T21:34:41.691Z,56.70
2019-03-24T21:37:13.841Z,56.80
2019-03-24T21:39:45.086Z,56.90
2019-03-24T21:42:16.838Z,56.90
2019-03-24T21:44:48.109Z,56.90
2019-03-24T21:47:19.413Z,56.90
2019-03-24T21:49:50.558Z,56.90
2019-03-24T21:52:21.777Z,56.90
2019-03-24T21:54:54.063Z,56.80
2019-03-24T21:57:26.302Z,56.70
2019-03-24T21:59:57.820Z,56.80
2019-03-24T22:02:29.053Z,56.70
2019-03-24T22:05:00.364Z,56.70
2019-03-24T22:07:31.624Z,56.70
2019-03-24T22:10:02.870Z,56.70
2019-03-24T22:12:34.683Z,56.70
2019-03-24T22:15:07.120Z,56.70
2019-03-24T22:17:38.786Z,56.80
2019-03-24T22:20:12.303Z,56.80
2019-03-24T22:22:43.502Z,56.80
2019-03-24T22:25:14.766Z,56.90
2019-03-24T22:27:46.257Z,56.90
2019-03-24T22:30:17.748Z,56.90
2019-03-24T22:32:49.009Z,57.00
2019-03-24T22:35:20.731Z,56.90
2019-03-24T22:37:52.118Z,57.10
2019-03-24T22:40:23.341Z,57.30
2019-03-24T22:42:55.084Z,57.50
2019-03-24T22:45:26.267Z,57.70
2019-03-24T22:47:57.546Z,57.80
2019-03-24T22:50:29.064Z,57.80
2019-03-24T22:53:00.519Z,57.80
2019-03-24T22:55:31.750Z,57.80
2019-03-24T22:58:03.053Z,57.80
2019-03-24T23:00:52.269Z,57.90
2019-03-24T23:03:25.181Z,57.90
2019-03-24T23:05:56.860Z,57.90
2019-03-24T23:08:28.167Z,57.90
2019-03-24T23:10:59.362Z,58.00
2019-03-24T23:13:30.603Z,58.00
2019-03-24T23:16:01.737Z,58.00
2019-03-24T23:18:33.023Z,58.00
2019-03-24T23:21:04.286Z,58.00
2019-03-24T23:23:35.428Z,58.10
2019-03-24T23:26:06.751Z,58.20
2019-03-24T23:28:38.035Z,58.30
2019-03-24T23:31:09.263Z,58.20
2019-03-24T23:33:40.588Z,58.30
2019-03-24T23:36:12.121Z,58.30
2019-03-24T23:38:43.278Z,58.40
2019-03-24T23:41:14.387Z,58.40
2019-03-24T23:43:45.611Z,58.40
2019-03-24T23:46:16.823Z,58.40
2019-03-24T23:48:48.286Z,58.50
2019-03-24T23:51:19.479Z,58.50
2019-03-24T23:53:50.729Z,58.70
2019-03-24T23:56:21.874Z,58.70
2019-03-24T23:58:53.090Z,58.70
